createdAt,value
2017-06-03T00:00:54.778Z,0
2017-06-03T00:02:06.997Z,0
2017-06-03T00:03:19.519Z,0
2017-06-03T00:04:32.044Z,0
2017-06-03T00:05:44.558Z,0
2017-06-03T00:06:57.083Z,0
2017-06-03T00:08:09.615Z,0
2017-06-03T00:09:21.546Z,0
2017-06-03T00:10:33.816Z,0
2017-06-03T00:11:46.342Z,0
2017-06-03T00:12:58.888Z,0
2017-06-03T00:14:11.429Z,0
2017-06-03T00:15:23.950Z,0
2017-06-03T00:16:36.175Z,0
2017-06-03T00:17:48.095Z,0
2017-06-03T00:19:00.615Z,0
2017-06-03T00:20:12.855Z,0
2017-06-03T00:21:25.089Z,0
2017-06-03T00:22:37.602Z,0
2017-06-03T00:23:50.130Z,0
2017-06-03T00:25:02.993Z,0
2017-06-03T00:26:14.617Z,0
2017-06-03T00:27:27.154Z,0
2017-06-03T00:28:39.408Z,0
2017-06-03T00:29:51.954Z,0
2017-06-03T00:31:04.494Z,0
2017-06-03T00:32:16.735Z,0
2017-06-03T00:33:28.970Z,0
2017-06-03T00:34:41.488Z,0
2017-06-03T00:35:53.731Z,0
2017-06-03T00:37:06.255Z,0
2017-06-03T00:38:18.797Z,0
2017-06-03T00:39:31.335Z,0
2017-06-03T00:40:43.888Z,0
2017-06-03T00:41:56.431Z,0
2017-06-03T00:43:08.931Z,0
2017-06-03T00:44:21.155Z,0
2017-06-03T00:45:33.690Z,0
2017-06-03T00:46:46.244Z,0
2017-06-03T00:47:58.750Z,0
2017-06-03T00:49:11.307Z,0
2017-06-03T00:50:23.838Z,0
2017-06-03T00:51:36.678Z,0
2017-06-03T00:52:49.201Z,0
2017-06-03T00:54:01.724Z,0
2017-06-03T00:55:14.267Z,0
2017-06-03T00:56:26.792Z,0
2017-06-03T00:57:39.332Z,0
2017-06-03T00:58:51.856Z,0
2017-06-03T01:00:04.405Z,0
2017-06-03T01:01:16.938Z,0
2017-06-03T01:02:29.468Z,0
2017-06-03T01:03:41.987Z,0
2017-06-03T01:04:54.507Z,0
2017-06-03T01:06:07.029Z,0
2017-06-03T01:07:19.252Z,0
2017-06-03T01:08:31.774Z,0
2017-06-03T01:09:44.316Z,0
2017-06-03T01:10:56.829Z,0
2017-06-03T01:12:09.362Z,0
2017-06-03T01:13:21.886Z,0
2017-06-03T01:14:34.426Z,0
2017-06-03T01:15:46.625Z,0
2017-06-03T01:16:58.547Z,0
2017-06-03T01:18:10.764Z,0
2017-06-03T01:19:22.984Z,0
2017-06-03T01:20:35.531Z,0
2017-06-03T01:21:48.042Z,0
2017-06-03T01:23:00.596Z,0
2017-06-03T01:24:12.817Z,0
2017-06-03T01:25:25.339Z,0
2017-06-03T01:26:37.888Z,0
2017-06-03T01:27:50.398Z,0
2017-06-03T01:29:02.905Z,0
2017-06-03T01:30:15.450Z,0
2017-06-03T01:31:27.968Z,0
2017-06-03T01:32:40.492Z,0
2017-06-03T01:33:53.054Z,0
2017-06-03T01:35:05.559Z,0
2017-06-03T01:36:17.794Z,0
2017-06-03T01:37:30.346Z,0
2017-06-03T01:38:42.585Z,0
2017-06-03T01:39:55.110Z,0
2017-06-03T01:41:07.638Z,0
2017-06-03T01:42:19.556Z,0
2017-06-03T01:43:31.805Z,0
2017-06-03T01:44:44.344Z,0
2017-06-03T01:45:56.872Z,0
2017-06-03T01:47:09.420Z,0
2017-06-03T01:48:21.986Z,0
2017-06-03T01:49:34.510Z,0
2017-06-03T01:50:47.069Z,0
2017-06-03T01:51:59.597Z,0
2017-06-03T01:53:11.844Z,0
2017-06-03T01:54:24.365Z,0
2017-06-03T01:55:36.890Z,0
2017-06-03T01:56:49.413Z,0
2017-06-03T01:58:01.663Z,0
2017-06-03T01:59:13.902Z,0
2017-06-03T02:00:26.449Z,0
2017-06-03T02:01:39.012Z,0
2017-06-03T02:02:51.553Z,0
2017-06-03T02:04:03.766Z,0
2017-06-03T02:05:16.327Z,0
2017-06-03T02:06:28.869Z,0
2017-06-03T02:07:41.720Z,0
2017-06-03T02:08:54.269Z,0
2017-06-03T02:10:06.788Z,0
2017-06-03T02:11:19.029Z,0
2017-06-03T02:12:31.596Z,0
2017-06-03T02:13:44.076Z,0
2017-06-03T02:14:56.295Z,0
2017-06-03T02:16:08.791Z,0
2017-06-03T02:17:21.312Z,0
2017-06-03T02:18:33.587Z,0
2017-06-03T02:19:46.146Z,0
2017-06-03T02:20:58.683Z,0
2017-06-03T02:22:10.949Z,0
2017-06-03T02:23:23.483Z,0
2017-06-03T02:24:36.317Z,0
2017-06-03T02:25:48.561Z,0
2017-06-03T02:27:00.797Z,0
2017-06-03T02:28:13.343Z,0
2017-06-03T02:29:25.881Z,0
2017-06-03T02:30:38.397Z,0
2017-06-03T02:31:50.367Z,0
2017-06-03T02:33:02.930Z,0
2017-06-03T02:34:15.472Z,0
2017-06-03T02:35:27.997Z,0
2017-06-03T02:36:40.524Z,0
2017-06-03T02:37:53.039Z,0
2017-06-03T02:39:05.567Z,5
2017-06-03T02:40:18.341Z,5
2017-06-03T02:41:30.880Z,5
2017-06-03T02:42:43.430Z,5
2017-06-03T02:43:55.975Z,5
2017-06-03T02:45:08.514Z,5
2017-06-03T02:46:21.057Z,5
2017-06-03T02:47:33.607Z,5
2017-06-03T02:48:46.130Z,5
2017-06-03T02:49:58.655Z,5
2017-06-03T02:51:11.192Z,10
2017-06-03T02:52:23.736Z,10
2017-06-03T02:53:36.292Z,10
2017-06-03T02:54:48.531Z,10
2017-06-03T02:56:00.734Z,10
2017-06-03T02:57:12.969Z,10
2017-06-03T02:58:25.194Z,15
2017-06-03T02:59:37.397Z,15
2017-06-03T03:00:49.640Z,15
2017-06-03T03:02:02.178Z,15
2017-06-03T03:03:14.727Z,20
2017-06-03T03:04:27.257Z,20
2017-06-03T03:05:39.829Z,25
2017-06-03T03:06:52.344Z,25
2017-06-03T03:08:04.891Z,25
2017-06-03T03:09:17.112Z,25
2017-06-03T03:10:29.660Z,25
2017-06-03T03:11:42.158Z,30
2017-06-03T03:12:54.681Z,30
2017-06-03T03:14:07.240Z,30
2017-06-03T03:15:19.166Z,30
2017-06-03T03:16:31.687Z,35
2017-06-03T03:17:43.900Z,35
2017-06-03T03:18:56.436Z,35
2017-06-03T03:20:09.003Z,35
2017-06-03T03:21:20.947Z,40
2017-06-03T03:22:33.473Z,40
2017-06-03T03:23:45.993Z,40
2017-06-03T03:24:58.549Z,45
2017-06-03T03:26:11.078Z,45
2017-06-03T03:27:23.328Z,50
2017-06-03T03:28:35.846Z,50
2017-06-03T03:29:48.369Z,55
2017-06-03T03:31:00.883Z,55
2017-06-03T03:32:13.429Z,60
2017-06-03T03:33:25.963Z,60
2017-06-03T03:34:38.229Z,60
2017-06-03T03:35:50.774Z,65
2017-06-03T03:37:02.988Z,65
2017-06-03T03:38:15.230Z,65
2017-06-03T03:39:27.787Z,70
2017-06-03T03:40:40.008Z,70
2017-06-03T03:41:52.553Z,70
2017-06-03T03:43:05.075Z,75
2017-06-03T03:44:17.312Z,75
2017-06-03T03:45:29.831Z,80
2017-06-03T03:46:42.388Z,80
2017-06-03T03:47:54.907Z,80
2017-06-03T03:49:07.135Z,85
2017-06-03T03:50:19.372Z,85
2017-06-03T03:51:32.213Z,85
2017-06-03T03:52:44.460Z,90
2017-06-03T03:53:56.685Z,90
2017-06-03T03:55:09.210Z,90
2017-06-03T03:56:21.445Z,95
2017-06-03T03:57:33.969Z,95
2017-06-03T03:58:45.873Z,100
2017-06-03T03:59:58.114Z,100
2017-06-03T04:01:10.635Z,100
2017-06-03T04:02:23.177Z,105
2017-06-03T04:03:35.702Z,105
2017-06-03T04:04:47.923Z,110
2017-06-03T04:06:00.139Z,110
2017-06-03T04:07:12.685Z,110
2017-06-03T04:08:24.914Z,115
2017-06-03T04:09:37.433Z,115
2017-06-03T04:10:49.659Z,115
2017-06-03T04:12:02.190Z,120
2017-06-03T04:13:14.394Z,120
2017-06-03T04:14:26.290Z,120
2017-06-03T04:15:38.516Z,120
2017-06-03T04:16:51.087Z,125
2017-06-03T04:18:03.322Z,125
2017-06-03T04:19:15.852Z,125
2017-06-03T04:20:28.374Z,130
2017-06-03T04:21:40.937Z,130
2017-06-03T04:22:53.462Z,130
2017-06-03T04:24:06.300Z,130
2017-06-03T04:25:18.550Z,130
2017-06-03T04:26:31.093Z,135
2017-06-03T04:27:43.620Z,135
2017-06-03T04:28:55.844Z,135
2017-06-03T04:30:07.767Z,135
2017-06-03T04:31:20.314Z,135
2017-06-03T04:32:32.858Z,140
2017-06-03T04:33:44.778Z,140
2017-06-03T04:34:57.321Z,140
2017-06-03T04:36:09.863Z,140
2017-06-03T04:37:22.064Z,140
2017-06-03T04:38:34.287Z,145
2017-06-03T04:39:46.530Z,145
2017-06-03T04:40:59.071Z,145
2017-06-03T04:42:11.313Z,150
2017-06-03T04:43:23.546Z,150
2017-06-03T04:44:36.063Z,155
2017-06-03T04:45:48.851Z,155
2017-06-03T04:47:01.401Z,155
2017-06-03T04:48:13.657Z,155
2017-06-03T04:49:25.878Z,160
2017-06-03T04:50:38.088Z,160
2017-06-03T04:51:50.631Z,165
2017-06-03T04:53:03.166Z,165
2017-06-03T04:54:15.109Z,170
2017-06-03T04:55:27.352Z,175
2017-06-03T04:56:39.602Z,175
2017-06-03T04:57:51.821Z,175
2017-06-03T04:59:04.036Z,185
2017-06-03T05:00:16.565Z,180
2017-06-03T05:01:29.099Z,185
2017-06-03T05:02:41.649Z,185
2017-06-03T05:03:54.175Z,190
2017-06-03T05:05:06.423Z,195
2017-06-03T05:06:18.965Z,195
2017-06-03T05:07:31.506Z,205
2017-06-03T05:08:44.049Z,205
2017-06-03T05:09:56.569Z,210
2017-06-03T05:11:09.115Z,215
2017-06-03T05:12:21.602Z,215
2017-06-03T05:13:34.157Z,215
2017-06-03T05:14:46.680Z,215
2017-06-03T05:15:59.184Z,215
2017-06-03T05:17:11.107Z,225
2017-06-03T05:18:23.902Z,240
2017-06-03T05:19:35.516Z,260
2017-06-03T05:20:48.034Z,265
2017-06-03T05:22:00.271Z,280
2017-06-03T05:23:12.786Z,355
2017-06-03T05:24:24.708Z,435
2017-06-03T05:25:37.229Z,450
2017-06-03T05:26:49.746Z,370
2017-06-03T05:28:02.267Z,290
2017-06-03T05:29:14.791Z,280
2017-06-03T05:30:27.360Z,255
2017-06-03T05:31:39.882Z,235
2017-06-03T05:32:51.803Z,240
2017-06-03T05:34:04.348Z,245
2017-06-03T05:35:16.574Z,235
2017-06-03T05:36:29.114Z,240
2017-06-03T05:37:41.637Z,240
2017-06-03T05:38:54.135Z,240
2017-06-03T05:40:06.675Z,240
2017-06-03T05:41:18.900Z,255
2017-06-03T05:42:31.446Z,255
2017-06-03T05:43:43.963Z,250
2017-06-03T05:44:55.891Z,255
2017-06-03T05:46:08.134Z,255
2017-06-03T05:47:20.381Z,260
2017-06-03T05:48:32.943Z,255
2017-06-03T05:49:45.470Z,270
2017-06-03T05:50:57.730Z,275
2017-06-03T05:52:09.677Z,265
2017-06-03T05:53:22.180Z,270
2017-06-03T05:54:34.722Z,280
2017-06-03T05:55:47.251Z,280
2017-06-03T05:56:59.186Z,280
2017-06-03T05:58:11.418Z,290
2017-06-03T05:59:23.968Z,295
2017-06-03T06:00:36.481Z,295
2017-06-03T06:01:49.023Z,300
2017-06-03T06:03:01.568Z,305
2017-06-03T06:04:14.093Z,310
2017-06-03T06:05:26.618Z,325
2017-06-03T06:06:39.136Z,335
2017-06-03T06:07:51.685Z,345
2017-06-03T06:09:04.228Z,360
2017-06-03T06:10:16.748Z,400
2017-06-03T06:11:29.312Z,405
2017-06-03T06:12:42.107Z,505
2017-06-03T06:13:54.336Z,545
2017-06-03T06:15:06.882Z,530
2017-06-03T06:16:19.424Z,480
2017-06-03T06:17:31.667Z,500
2017-06-03T06:18:43.898Z,670
2017-06-03T06:19:56.143Z,895
2017-06-03T06:21:08.378Z,905
2017-06-03T06:22:19.386Z,685
2017-06-03T06:23:31.905Z,505
2017-06-03T06:24:44.453Z,550
2017-06-03T06:25:56.996Z,580
2017-06-03T06:27:09.537Z,505
2017-06-03T06:28:22.087Z,525
2017-06-03T06:29:34.614Z,500
2017-06-03T06:30:47.157Z,485
2017-06-03T06:31:59.692Z,595
2017-06-03T06:33:12.274Z,820
2017-06-03T06:34:24.760Z,1020
2017-06-03T06:35:37.292Z,1090
2017-06-03T06:36:49.840Z,1090
2017-06-03T06:38:02.399Z,1120
2017-06-03T06:39:14.625Z,1120
2017-06-03T06:40:26.851Z,1120
2017-06-03T06:41:39.066Z,1115
2017-06-03T06:42:51.613Z,1120
2017-06-03T06:44:04.151Z,1100
2017-06-03T06:45:16.660Z,1110
2017-06-03T06:46:28.925Z,1165
2017-06-03T06:47:41.475Z,1165
2017-06-03T06:48:54.018Z,1220
2017-06-03T06:50:06.566Z,1240
2017-06-03T06:51:18.814Z,1295
2017-06-03T06:52:31.383Z,1340
2017-06-03T06:53:43.925Z,1375
2017-06-03T06:54:56.500Z,1265
2017-06-03T06:56:08.764Z,1440
2017-06-03T06:57:21.292Z,1070
2017-06-03T06:58:33.827Z,900
2017-06-03T06:59:46.075Z,855
2017-06-03T07:00:58.344Z,830
2017-06-03T07:02:10.918Z,810
2017-06-03T07:03:23.468Z,800
2017-06-03T07:04:35.992Z,790
2017-06-03T07:05:47.910Z,770
2017-06-03T07:07:00.430Z,725
2017-06-03T07:08:12.972Z,700
2017-06-03T07:09:25.178Z,670
2017-06-03T07:10:37.740Z,645
2017-06-03T07:11:50.264Z,620
2017-06-03T07:13:02.814Z,610
2017-06-03T07:14:15.382Z,630
2017-06-03T07:15:27.929Z,650
2017-06-03T07:16:40.193Z,660
2017-06-03T07:17:52.749Z,670
2017-06-03T07:19:05.318Z,685
2017-06-03T07:20:17.811Z,690
2017-06-03T07:21:30.385Z,695
2017-06-03T07:22:42.928Z,695
2017-06-03T07:23:55.448Z,725
2017-06-03T07:25:07.698Z,760
2017-06-03T07:26:19.940Z,780
2017-06-03T07:27:32.453Z,790
2017-06-03T07:28:44.984Z,820
2017-06-03T07:29:56.625Z,945
2017-06-03T07:31:09.167Z,1210
2017-06-03T07:32:21.100Z,1860
2017-06-03T07:33:33.661Z,1725
2017-06-03T07:34:46.212Z,1880
2017-06-03T07:35:58.757Z,1865
2017-06-03T07:37:11.008Z,1480
2017-06-03T07:38:23.295Z,1555
2017-06-03T07:39:35.853Z,1140
2017-06-03T07:40:48.138Z,1075
2017-06-03T07:42:00.387Z,980
2017-06-03T07:43:12.933Z,905
2017-06-03T07:44:25.454Z,860
2017-06-03T07:45:37.976Z,850
2017-06-03T07:46:50.499Z,845
2017-06-03T07:48:03.044Z,830
2017-06-03T07:49:15.306Z,820
2017-06-03T07:50:27.837Z,865
2017-06-03T07:51:40.400Z,910
2017-06-03T07:52:52.329Z,980
2017-06-03T07:54:04.902Z,1005
2017-06-03T07:55:17.142Z,990
2017-06-03T07:56:29.688Z,1030
2017-06-03T07:57:41.613Z,980
2017-06-03T07:58:53.876Z,1610
2017-06-03T08:00:06.446Z,1125
2017-06-03T08:01:18.651Z,1045
2017-06-03T08:02:30.596Z,1005
2017-06-03T08:03:42.856Z,930
2017-06-03T08:04:55.390Z,880
2017-06-03T08:06:07.931Z,875
2017-06-03T08:07:20.455Z,875
2017-06-03T08:08:32.997Z,820
2017-06-03T08:09:45.539Z,805
2017-06-03T08:10:58.110Z,800
2017-06-03T08:12:10.939Z,805
2017-06-03T08:13:23.213Z,825
2017-06-03T08:14:35.752Z,850
2017-06-03T08:15:48.004Z,890
2017-06-03T08:17:00.564Z,915
2017-06-03T08:18:12.808Z,960
2017-06-03T08:19:25.362Z,1000
2017-06-03T08:20:37.589Z,1020
2017-06-03T08:21:50.148Z,1000
2017-06-03T08:23:02.627Z,965
2017-06-03T08:24:15.170Z,965
2017-06-03T08:25:27.721Z,970
2017-06-03T08:26:39.954Z,1020
2017-06-03T08:27:52.537Z,1085
2017-06-03T08:29:05.106Z,1175
2017-06-03T08:30:17.691Z,1175
2017-06-03T08:31:30.244Z,1180
2017-06-03T08:32:42.491Z,1320
2017-06-03T08:33:54.763Z,1595
2017-06-03T08:35:07.325Z,1320
2017-06-03T08:36:19.574Z,1215
2017-06-03T08:37:31.516Z,1260
2017-06-03T08:38:44.073Z,1100
2017-06-03T08:39:56.611Z,1070
2017-06-03T08:41:09.193Z,1080
2017-06-03T08:42:21.754Z,1135
2017-06-03T08:43:34.282Z,1205
2017-06-03T08:44:46.867Z,1340
2017-06-03T08:45:59.449Z,1475
2017-06-03T08:47:12.008Z,1685
2017-06-03T08:48:24.558Z,2125
2017-06-03T08:49:37.110Z,2395
2017-06-03T08:50:49.629Z,1965
2017-06-03T08:52:02.159Z,1615
2017-06-03T08:53:14.721Z,1605
2017-06-03T08:54:26.971Z,1785
2017-06-03T08:55:39.513Z,1700
2017-06-03T08:56:52.076Z,1265
2017-06-03T08:58:04.626Z,1090
2017-06-03T08:59:17.176Z,970
2017-06-03T09:00:29.749Z,875
2017-06-03T09:01:42.313Z,815
2017-06-03T09:02:54.560Z,770
2017-06-03T09:04:07.130Z,715
2017-06-03T09:05:19.402Z,665
2017-06-03T09:06:31.673Z,625
2017-06-03T09:07:44.247Z,590
2017-06-03T09:08:56.189Z,555
2017-06-03T09:10:08.139Z,535
2017-06-03T09:11:20.664Z,540
2017-06-03T09:12:33.247Z,570
2017-06-03T09:13:45.504Z,615
2017-06-03T09:14:58.025Z,675
2017-06-03T09:16:10.270Z,625
2017-06-03T09:17:22.807Z,515
2017-06-03T09:18:35.335Z,435
2017-06-03T09:19:47.877Z,375
2017-06-03T09:20:59.860Z,345
2017-06-03T09:22:12.426Z,330
2017-06-03T09:23:24.672Z,320
2017-06-03T09:24:36.896Z,305
2017-06-03T09:25:49.141Z,290
2017-06-03T09:27:01.725Z,285
2017-06-03T09:28:13.695Z,280
2017-06-03T09:29:26.278Z,275
2017-06-03T09:30:38.519Z,255
2017-06-03T09:31:51.036Z,245
2017-06-03T09:33:02.990Z,250
2017-06-03T09:34:15.231Z,255
2017-06-03T09:35:27.471Z,270
2017-06-03T09:36:39.725Z,290
2017-06-03T09:37:51.948Z,310
2017-06-03T09:39:04.516Z,330
2017-06-03T09:40:17.057Z,350
2017-06-03T09:41:29.262Z,360
2017-06-03T09:42:41.204Z,350
2017-06-03T09:43:53.753Z,345
2017-06-03T09:45:05.988Z,335
2017-06-03T09:46:18.519Z,345
2017-06-03T09:47:31.079Z,365
2017-06-03T09:48:43.312Z,375
2017-06-03T09:49:55.560Z,405
2017-06-03T09:51:08.100Z,435
2017-06-03T09:52:20.667Z,450
2017-06-03T09:53:32.872Z,455
2017-06-03T09:54:45.440Z,450
2017-06-03T09:55:57.687Z,440
2017-06-03T09:57:09.925Z,445
2017-06-03T09:58:22.175Z,470
2017-06-03T09:59:34.418Z,515
2017-06-03T10:00:46.947Z,555
2017-06-03T10:01:59.506Z,585
2017-06-03T10:03:11.740Z,605
2017-06-03T10:04:23.383Z,600
2017-06-03T10:05:35.908Z,575
2017-06-03T10:06:48.501Z,550
2017-06-03T10:08:01.064Z,510
2017-06-03T10:09:13.614Z,475
2017-06-03T10:10:26.135Z,475
2017-06-03T10:11:38.374Z,475
2017-06-03T10:12:50.902Z,505
2017-06-03T10:14:03.123Z,530
2017-06-03T10:15:15.672Z,555
2017-06-03T10:16:28.235Z,555
2017-06-03T10:17:40.809Z,545
2017-06-03T10:18:53.058Z,530
2017-06-03T10:20:05.283Z,515
2017-06-03T10:21:17.839Z,500
2017-06-03T10:22:30.350Z,495
2017-06-03T10:23:42.893Z,475
2017-06-03T10:24:55.160Z,465
2017-06-03T10:26:07.658Z,455
2017-06-03T10:27:20.205Z,450
2017-06-03T10:28:32.765Z,445
2017-06-03T10:29:45.012Z,445
2017-06-03T10:30:57.243Z,440
2017-06-03T10:32:09.784Z,440
2017-06-03T10:33:22.028Z,425
2017-06-03T10:34:34.272Z,420
2017-06-03T10:35:46.503Z,420
2017-06-03T10:36:58.445Z,420
2017-06-03T10:38:10.973Z,420
2017-06-03T10:39:23.512Z,425
2017-06-03T10:40:36.032Z,430
2017-06-03T10:41:48.274Z,435
2017-06-03T10:43:00.809Z,435
2017-06-03T10:44:13.048Z,435
2017-06-03T10:45:25.570Z,440
2017-06-03T10:46:38.119Z,425
2017-06-03T10:47:50.675Z,415
2017-06-03T10:49:02.907Z,405
2017-06-03T10:50:14.847Z,390
2017-06-03T10:51:27.413Z,370
2017-06-03T10:52:39.649Z,355
2017-06-03T10:53:52.192Z,345
2017-06-03T10:55:04.712Z,340
2017-06-03T10:56:17.254Z,340
2017-06-03T10:57:29.803Z,345
2017-06-03T10:58:42.024Z,345
2017-06-03T10:59:54.564Z,345
2017-06-03T11:01:07.114Z,345
2017-06-03T11:02:19.026Z,340
2017-06-03T11:03:31.558Z,330
2017-06-03T11:04:44.080Z,315
2017-06-03T11:05:56.600Z,305
2017-06-03T11:07:09.146Z,295
2017-06-03T11:08:21.681Z,290
2017-06-03T11:09:34.227Z,290
2017-06-03T11:10:46.765Z,290
2017-06-03T11:11:59.030Z,295
2017-06-03T11:13:11.590Z,295
2017-06-03T11:14:23.793Z,300
2017-06-03T11:15:36.315Z,310
2017-06-03T11:16:48.853Z,320
2017-06-03T11:18:01.356Z,330
2017-06-03T11:19:13.581Z,340
2017-06-03T11:20:26.123Z,355
2017-06-03T11:21:38.047Z,380
2017-06-03T11:22:50.282Z,400
2017-06-03T11:24:02.856Z,405
2017-06-03T11:25:15.111Z,405
2017-06-03T11:26:27.673Z,410
2017-06-03T11:27:39.916Z,405
2017-06-03T11:28:52.439Z,405
2017-06-03T11:30:04.990Z,410
2017-06-03T11:31:17.236Z,425
2017-06-03T11:32:29.782Z,445
2017-06-03T11:33:42.032Z,465
2017-06-03T11:34:54.266Z,470
2017-06-03T11:36:06.799Z,470
2017-06-03T11:37:19.339Z,460
2017-06-03T11:38:31.582Z,450
2017-06-03T11:39:44.125Z,435
2017-06-03T11:40:56.354Z,410
2017-06-03T11:42:08.621Z,375
2017-06-03T11:43:20.847Z,360
2017-06-03T11:44:33.391Z,370
2017-06-03T11:45:45.930Z,390
2017-06-03T11:46:58.477Z,395
2017-06-03T11:48:10.732Z,375
2017-06-03T11:49:23.292Z,350
2017-06-03T11:50:35.820Z,340
2017-06-03T11:51:48.346Z,345
2017-06-03T11:53:00.591Z,370
2017-06-03T11:54:13.151Z,400
2017-06-03T11:55:25.679Z,450
2017-06-03T11:56:38.217Z,500
2017-06-03T11:57:50.188Z,550
2017-06-03T11:59:02.401Z,585
2017-06-03T12:00:14.917Z,600
2017-06-03T12:01:27.462Z,595
2017-06-03T12:02:40.034Z,590
2017-06-03T12:03:52.552Z,580
2017-06-03T12:05:05.075Z,560
2017-06-03T12:06:17.340Z,545
2017-06-03T12:07:29.281Z,540
2017-06-03T12:08:41.813Z,545
2017-06-03T12:09:54.357Z,545
2017-06-03T12:11:06.558Z,530
2017-06-03T12:12:19.106Z,505
2017-06-03T12:13:31.668Z,475
2017-06-03T12:14:44.194Z,445
2017-06-03T12:15:56.456Z,415
2017-06-03T12:17:08.698Z,385
2017-06-03T12:18:21.202Z,370
2017-06-03T12:19:33.126Z,355
2017-06-03T12:20:45.372Z,350
2017-06-03T12:21:57.935Z,360
2017-06-03T12:23:10.461Z,390
2017-06-03T12:24:22.709Z,405
2017-06-03T12:25:34.932Z,415
2017-06-03T12:26:47.498Z,430
2017-06-03T12:28:00.012Z,425
2017-06-03T12:29:12.570Z,415
2017-06-03T12:30:25.132Z,390
2017-06-03T12:31:37.682Z,365
2017-06-03T12:32:49.898Z,325
2017-06-03T12:34:02.421Z,295
2017-06-03T12:35:14.653Z,275
2017-06-03T12:36:26.916Z,265
2017-06-03T12:37:39.441Z,275
2017-06-03T12:38:51.687Z,285
2017-06-03T12:40:04.250Z,290
2017-06-03T12:41:16.475Z,300
2017-06-03T12:42:28.703Z,305
2017-06-03T12:43:41.494Z,330
2017-06-03T12:44:53.732Z,365
2017-06-03T12:46:06.287Z,415
2017-06-03T12:47:18.857Z,490
2017-06-03T12:48:31.092Z,550
2017-06-03T12:49:43.296Z,580
2017-06-03T12:50:55.841Z,585
2017-06-03T12:52:08.062Z,585
2017-06-03T12:53:20.584Z,575
2017-06-03T12:54:33.096Z,555
2017-06-03T12:55:45.628Z,515
2017-06-03T12:56:58.189Z,455
2017-06-03T12:58:10.734Z,385
2017-06-03T12:59:22.967Z,335
2017-06-03T13:00:35.515Z,315
2017-06-03T13:01:48.051Z,315
2017-06-03T13:03:00.271Z,315
2017-06-03T13:04:12.827Z,310
2017-06-03T13:05:25.317Z,305
2017-06-03T13:06:37.856Z,290
2017-06-03T13:07:50.401Z,280
2017-06-03T13:09:02.923Z,285
2017-06-03T13:10:15.469Z,310
2017-06-03T13:11:28.018Z,355
2017-06-03T13:12:40.585Z,385
2017-06-03T13:13:53.117Z,410
2017-06-03T13:15:05.352Z,420
2017-06-03T13:16:17.898Z,445
2017-06-03T13:17:30.443Z,460
2017-06-03T13:18:42.993Z,450
2017-06-03T13:19:55.215Z,395
2017-06-03T13:21:07.765Z,320
2017-06-03T13:22:20.024Z,260
2017-06-03T13:23:31.958Z,235
2017-06-03T13:24:44.502Z,235
2017-06-03T13:25:56.727Z,240
2017-06-03T13:27:09.247Z,240
2017-06-03T13:28:21.817Z,245
2017-06-03T13:29:34.314Z,250
2017-06-03T13:30:46.549Z,265
2017-06-03T13:31:58.807Z,275
2017-06-03T13:33:11.326Z,265
2017-06-03T13:34:23.848Z,255
2017-06-03T13:35:35.795Z,255
2017-06-03T13:36:48.311Z,250
2017-06-03T13:38:00.882Z,260
2017-06-03T13:39:13.424Z,270
2017-06-03T13:40:25.999Z,295
2017-06-03T13:41:38.523Z,305
2017-06-03T13:42:50.744Z,330
2017-06-03T13:44:02.987Z,360
2017-06-03T13:45:14.901Z,405
2017-06-03T13:46:27.420Z,465
2017-06-03T13:47:39.954Z,580
2017-06-03T13:48:52.499Z,745
2017-06-03T13:50:04.437Z,775
2017-06-03T13:51:16.966Z,795
2017-06-03T13:52:28.908Z,810
2017-06-03T13:53:40.855Z,760
2017-06-03T13:54:53.404Z,695
2017-06-03T13:56:05.321Z,610
2017-06-03T13:57:17.817Z,560
2017-06-03T13:58:30.355Z,545
2017-06-03T13:59:42.614Z,570
2017-06-03T14:00:54.537Z,590
2017-06-03T14:02:07.119Z,560
2017-06-03T14:03:19.346Z,540
2017-06-03T14:04:31.868Z,535
2017-06-03T14:05:44.392Z,545
2017-06-03T14:06:56.930Z,550
2017-06-03T14:08:09.186Z,540
2017-06-03T14:09:21.726Z,540
2017-06-03T14:10:34.264Z,570
2017-06-03T14:11:46.522Z,635
2017-06-03T14:12:59.064Z,705
2017-06-03T14:14:11.285Z,795
2017-06-03T14:15:23.834Z,930
2017-06-03T14:16:36.081Z,1040
2017-06-03T14:17:48.652Z,1105
2017-06-03T14:19:00.886Z,1415
2017-06-03T14:20:13.438Z,1570
2017-06-03T14:21:25.692Z,1920
2017-06-03T14:22:38.231Z,1305
2017-06-03T14:23:50.780Z,1065
2017-06-03T14:25:03.323Z,1620
2017-06-03T14:26:15.861Z,1300
2017-06-03T14:27:28.368Z,1445
2017-06-03T14:28:40.888Z,1360
2017-06-03T14:29:53.109Z,1125
2017-06-03T14:31:05.630Z,980
2017-06-03T14:32:18.401Z,955
2017-06-03T14:33:30.648Z,1035
2017-06-03T14:34:43.194Z,1315
2017-06-03T14:35:55.716Z,1075
2017-06-03T14:37:08.249Z,900
2017-06-03T14:38:20.193Z,805
2017-06-03T14:39:32.752Z,770
2017-06-03T14:40:45.002Z,795
2017-06-03T14:41:57.561Z,830
2017-06-03T14:43:10.112Z,900
2017-06-03T14:44:22.661Z,1065
2017-06-03T14:45:35.204Z,1015
2017-06-03T14:46:47.796Z,915
2017-06-03T14:48:00.342Z,910
2017-06-03T14:49:12.882Z,960
2017-06-03T14:50:24.813Z,1010
2017-06-03T14:51:37.334Z,1020
2017-06-03T14:52:49.875Z,950
2017-06-03T14:54:02.427Z,865
2017-06-03T14:55:14.999Z,830
2017-06-03T14:56:27.517Z,780
2017-06-03T14:57:40.030Z,760
2017-06-03T14:58:52.562Z,750
2017-06-03T15:00:05.108Z,735
2017-06-03T15:01:17.670Z,705
2017-06-03T15:02:30.250Z,645
2017-06-03T15:03:42.467Z,620
2017-06-03T15:04:54.987Z,610
2017-06-03T15:06:07.257Z,650
2017-06-03T15:07:19.210Z,675
2017-06-03T15:08:31.171Z,680
2017-06-03T15:09:43.424Z,645
2017-06-03T15:10:55.976Z,620
2017-06-03T15:12:08.230Z,605
2017-06-03T15:13:20.762Z,595
2017-06-03T15:14:33.326Z,590
2017-06-03T15:15:45.558Z,585
2017-06-03T15:16:57.818Z,595
2017-06-03T15:18:10.363Z,610
2017-06-03T15:19:22.618Z,610
2017-06-03T15:20:34.864Z,600
2017-06-03T15:21:47.105Z,580
2017-06-03T15:22:59.326Z,560
2017-06-03T15:24:11.848Z,550
2017-06-03T15:25:24.372Z,545
2017-06-03T15:26:36.639Z,545
2017-06-03T15:27:49.186Z,545
2017-06-03T15:29:01.709Z,555
2017-06-03T15:30:13.669Z,565
2017-06-03T15:31:26.202Z,565
2017-06-03T15:32:38.772Z,565
2017-06-03T15:33:51.016Z,570
2017-06-03T15:35:03.265Z,575
2017-06-03T15:36:15.808Z,605
2017-06-03T15:37:28.670Z,705
2017-06-03T15:38:41.198Z,760
2017-06-03T15:39:53.722Z,615
2017-06-03T15:41:06.269Z,580
2017-06-03T15:42:18.511Z,610
2017-06-03T15:43:31.059Z,605
2017-06-03T15:44:43.581Z,590
2017-06-03T15:45:55.501Z,610
2017-06-03T15:47:07.762Z,635
2017-06-03T15:48:19.991Z,660
2017-06-03T15:49:32.532Z,670
2017-06-03T15:50:44.774Z,650
2017-06-03T15:51:57.007Z,620
2017-06-03T15:53:08.954Z,580
2017-06-03T15:54:21.172Z,555
2017-06-03T15:55:33.434Z,525
2017-06-03T15:56:45.690Z,525
2017-06-03T15:57:58.224Z,490
2017-06-03T15:59:10.781Z,490
2017-06-03T16:00:23.328Z,520
2017-06-03T16:01:35.550Z,555
2017-06-03T16:02:48.090Z,585
2017-06-03T16:04:00.313Z,585
2017-06-03T16:05:12.540Z,540
2017-06-03T16:06:25.108Z,480
2017-06-03T16:07:37.376Z,460
2017-06-03T16:08:49.604Z,470
2017-06-03T16:10:02.163Z,475
2017-06-03T16:11:14.730Z,450
2017-06-03T16:12:27.288Z,415
2017-06-03T16:13:39.860Z,380
2017-06-03T16:14:52.124Z,365
2017-06-03T16:16:04.675Z,365
2017-06-03T16:17:16.910Z,365
2017-06-03T16:18:29.459Z,365
2017-06-03T16:19:41.430Z,375
2017-06-03T16:20:53.934Z,375
2017-06-03T16:22:06.172Z,375
2017-06-03T16:23:18.122Z,375
2017-06-03T16:24:30.625Z,375
2017-06-03T16:25:43.184Z,365
2017-06-03T16:26:55.685Z,355
2017-06-03T16:28:08.211Z,350
2017-06-03T16:29:20.731Z,335
2017-06-03T16:30:32.971Z,335
2017-06-03T16:31:45.198Z,340
2017-06-03T16:32:57.740Z,340
2017-06-03T16:34:10.280Z,335
2017-06-03T16:35:22.224Z,315
2017-06-03T16:36:34.784Z,305
2017-06-03T16:37:47.302Z,310
2017-06-03T16:38:59.819Z,315
2017-06-03T16:40:12.072Z,315
2017-06-03T16:41:24.317Z,320
2017-06-03T16:42:37.111Z,310
2017-06-03T16:43:49.670Z,305
2017-06-03T16:45:01.908Z,300
2017-06-03T16:46:13.865Z,290
2017-06-03T16:47:26.392Z,285